Time,TemperatureF,DewpointF,PressureIn,WindDirection,WindDirectionDegrees,WindSpeedMPH,WindSpeedGustMPH,Humidity,HourlyPrecipIn,Conditions,Clouds,dailyrainin,SoftwareType,DateUTC
2013-07-17 00:00:00,78.0,74.2,30.09,ESE,112,3.5,3.5,88,0.00,RA,,0.00,WeatherDisplay:10.37,2013-07-17 04:00:00,
2013-07-17 00:01:00,78.0,74.2,30.09,ESE,112,3.5,3.5,88,0.00,RA,,0.00,WeatherDisplay:10.37,2013-07-17 04:01:00,
2013-07-17 00:06:00,78.0,74.2,30.09,ENE,72,3.5,3.5,88,0.00,RA,,0.00,WeatherDisplay:10.37,2013-07-17 04:06:00,
2013-07-17 00:11:00,77.9,74.1,30.09,ESE,117,5.0,5.0,88,0.00,CLR,,0.00,WeatherDisplay:10.37,2013-07-17 04:11:00,
2013-07-17 00:16:00,77.9,74.1,30.09,East,101,3.5,3.5,88,0.00,CLR,,0.00,WeatherDisplay:10.37,2013-07-17 04:16:00,
2013-07-17 00:21:00,78.0,74.2,30.09,East,84,3.5,3.5,88,0.00,CLR,,0.00,WeatherDisplay:10.37,2013-07-17 04:21:00,
2013-07-17 00:26:00,78.0,74.2,30.09,East,79,3.5,3.5,88,0.00,CLR,,0.00,WeatherDisplay:10.37,2013-07-17 04:26:00,
2013-07-17 00:31:00,78.0,74.2,30.09,East,94,3.5,3.5,88,0.00,CLR,,0.00,WeatherDisplay:10.37,2013-07-17 04:31:00,
2013-07-17 00:36:00,78.0,73.8,30.08,East,83,3.5,3.5,87,0.00,CLR,,0.00,WeatherDisplay:10.37,2013-07-17 04:36:00,
2013-07-17 00:41:00,78.0,74.2,30.08,East,82,3.5,3.5,88,0.00,CLR,,0.00,WeatherDisplay:10.37,2013-07-17 04:41:00,
2013-07-17 00:46:00,77.9,74.1,30.08,East,81,3.5,3.5,88,0.00,CLR,,0.00,WeatherDisplay:10.37,2013-07-17 04:46:00,
2013-07-17 00:51:00,77.8,74.0,30.07,East,83,3.5,3.5,88,0.00,CLR,,0.00,WeatherDisplay:10.37,2013-07-17 04:51:00,
2013-07-17 00:56:00,77.8,74.0,30.07,East,84,3.5,3.5,88,0.00,CLR,,0.00,WeatherDisplay:10.37,2013-07-17 04:56:00,
2013-07-17 00:58:00,77.7,73.9,30.07,East,84,3.5,3.5,88,0.00,CLR,,0.00,WeatherDisplay:10.37,2013-07-17 04:58:00,
2013-07-17 01:03:00,77.6,73.8,30.07,East,82,2.3,2.3,88,0.00,CLR,,0.00,WeatherDisplay:10.37,2013-07-17 05:03:00,
2013-07-17 01:08:00,77.6,73.8,30.07,East,79,3.5,3.5,88,0.00,CLR,,0.00,WeatherDisplay:10.37,2013-07-17 05:08:00,
2013-07-17 01:13:00,77.5,73.7,30.07,ENE,75,2.3,2.3,88,0.00,CLR,,0.00,WeatherDisplay:10.37,2013-07-17 05:13:00,
2013-07-17 01:18:00,77.5,73.7,30.07,East,85,3.5,3.5,88,0.00,CLR,,0.00,WeatherDisplay:10.37,2013-07-17 05:18:00,
2013-07-17 01:23:00,77.5,73.7,30.08,East,79,3.5,3.5,88,0.00,CLR,,0.00,WeatherDisplay:10.37,2013-07-17 05:23:00,
2013-07-17 01:28:00,77.5,73.7,30.08,East,90,3.5,3.5,88,0.00,CLR,,0.00,WeatherDisplay:10.37,2013-07-17 05:28:00,
2013-07-17 01:33:00,77.5,73.7,30.07,East,91,2.3,2.3,88,0.00,CLR,,0.00,WeatherDisplay:10.37,2013-07-17 05:33:00,
2013-07-17 01:38:00,77.5,73.7,30.07,East,88,3.5,3.5,88,0.00,CLR,,0.00,WeatherDisplay:10.37,2013-07-17 05:38:00,
2013-07-17 01:43:00,77.5,73.7,30.07,ENE,76,4.0,4.0,88,0.00,CLR,,0.00,WeatherDisplay:10.37,2013-07-17 05:43:00,
2013-07-17 01:48:00,77.5,73.7,30.07,East,88,3.5,3.5,88,0.00,CLR,,0.00,WeatherDisplay:10.37,2013-07-17 05:48:00,
2013-07-17 01:53:00,77.5,73.7,30.07,East,95,3.5,3.5,88,0.00,CLR,,0.00,WeatherDisplay:10.37,2013-07-17 05:53:00,
2013-07-17 01:58:00,77.6,73.4,30.07,East,86,3.5,3.5,87,0.00,CLR,,0.00,WeatherDisplay:10.37,2013-07-17 05:58:00,
2013-07-17 02:03:00,77.7,73.5,30.07,ENE,72,4.6,4.6,87,0.00,CLR,,0.00,WeatherDisplay:10.37,2013-07-17 06:03:00,
2013-07-17 02:08:00,77.7,73.5,30.06,ENE,78,3.5,3.8,87,0.00,CLR,,0.00,WeatherDisplay:10.37,2013-07-17 06:08:00,
2013-07-17 02:13:00,77.8,73.6,30.06,NE,51,3.5,3.7,87,0.00,CLR,,0.00,WeatherDisplay:10.37,2013-07-17 06:13:00,
2013-07-17 02:18:00,77.9,73.4,30.06,East,87,3.5,3.5,86,0.00,CLR,,0.00,WeatherDisplay:10.37,2013-07-17 06:18:00,
2013-07-17 02:23:00,78.1,73.6,30.06,East,87,6.9,6.9,86,0.00,CLR,,0.00,WeatherDisplay:10.37,2013-07-17 06:23:00,
2013-07-17 02:28:00,78.2,73.7,30.06,ENE,69,4.6,4.6,86,0.00,CLR,,0.00,WeatherDisplay:10.37,2013-07-17 06:28:00,
2013-07-17 02:33:00,78.4,73.5,30.05,East,86,5.8,5.8,85,0.00,CLR,,0.00,WeatherDisplay:10.37,2013-07-17 06:33:00,
2013-07-17 02:38:00,78.4,73.5,30.05,ENE,75,6.9,6.9,85,0.00,CLR,,0.00,WeatherDisplay:10.37,2013-07-17 06:38:00,
2013-07-17 02:43:00,78.5,73.6,30.05,East,83,8.1,8.1,85,0.00,CLR,,0.00,WeatherDisplay:10.37,2013-07-17 06:43:00,
2013-07-17 02:48:00,78.5,73.3,30.04,ESE,107,6.9,6.9,84,0.00,CLR,,0.00,WeatherDisplay:10.37,2013-07-17 06:48:00,
2013-07-17 02:53:00,78.6,73.4,30.05,ESE,110,3.5,3.5,84,0.00,CLR,,0.00,WeatherDisplay:10.37,2013-07-17 06:53:00,
2013-07-17 02:58:00,78.5,73.3,30.04,ESE,109,4.6,4.6,84,0.00,CLR,,0.00,WeatherDisplay:10.37,2013-07-17 06:58:00,
2013-07-17 03:03:00,78.3,73.1,30.04,ESE,119,3.5,3.5,84,0.00,CLR,,0.00,WeatherDisplay:10.37,2013-07-17 07:03:00,
2013-07-17 03:08:00,78.1,72.9,30.04,East,96,3.5,3.5,84,0.00,CLR,,0.00,WeatherDisplay:10.37,2013-07-17 07:08:00,
2013-07-17 03:13:00,78.2,73.0,30.04,ENE,73,4.0,4.3,84,0.00,CLR,,0.00,WeatherDisplay:10.37,2013-07-17 07:13:00,
2013-07-17 03:18:00,78.2,73.0,30.04,East,100,4.6,4.6,84,0.00,CLR,,0.00,WeatherDisplay:10.37,2013-07-17 07:18:00,
2013-07-17 03:23:00,78.1,72.9,30.04,East,86,3.5,3.5,84,0.00,CLR,,0.00,WeatherDisplay:10.37,2013-07-17 07:23:00,
2013-07-17 03:28:00,78.0,72.8,30.04,ENE,71,3.5,3.5,84,0.00,CLR,,0.00,WeatherDisplay:10.37,2013-07-17 07:28:00,
2013-07-17 03:33:00,77.9,72.7,30.04,ENE,72,3.5,3.5,84,0.00,CLR,,0.00,WeatherDisplay:10.37,2013-07-17 07:33:00,
2013-07-17 03:38:00,77.8,72.6,30.04,ENE,65,3.5,3.5,84,0.00,CLR,,0.00,WeatherDisplay:10.37,2013-07-17 07:38:00,
2013-07-17 03:43:00,77.6,72.7,30.04,ENE,70,4.0,4.0,85,0.00,CLR,,0.00,WeatherDisplay:10.37,2013-07-17 07:43:00,
2013-07-17 03:48:00,77.6,72.7,30.04,ENE,66,4.0,4.0,85,0.00,CLR,,0.00,WeatherDisplay:10.37,2013-07-17 07:48:00,
2013-07-17 03:53:00,77.5,72.6,30.04,ENE,65,4.0,4.0,85,0.00,CLR,,0.00,WeatherDisplay:10.37,2013-07-17 07:53:00,
2013-07-17 03:58:00,77.5,72.6,30.04,ENE,61,4.6,4.6,85,0.00,CLR,,0.00,WeatherDisplay:10.37,2013-07-17 07:58:00,
2013-07-17 04:03:00,77.5,72.6,30.04,ENE,63,3.5,3.5,85,0.00,CLR,,0.00,WeatherDisplay:10.37,2013-07-17 08:03:00,
2013-07-17 04:08:00,77.5,72.6,30.04,ENE,69,3.5,3.5,85,0.00,CLR,,0.00,WeatherDisplay:10.37,2013-07-17 08:08:00,
2013-07-17 04:13:00,77.4,72.5,30.04,ENE,59,4.6,4.6,85,0.00,CLR,,0.00,WeatherDisplay:10.37,2013-07-17 08:13:00,
2013-07-17 04:18:00,77.3,72.4,30.04,East,86,3.5,3.5,85,0.00,CLR,,0.00,WeatherDisplay:10.37,2013-07-17 08:18:00,
2013-07-17 04:23:00,77.3,72.8,30.04,East,84,2.3,2.3,86,0.00,CLR,,0.00,WeatherDisplay:10.37,2013-07-17 08:23:00,
2013-07-17 04:28:00,77.1,72.6,30.04,East,82,2.3,2.3,86,0.00,CLR,,0.00,WeatherDisplay:10.37,2013-07-17 08:28:00,
2013-07-17 04:33:00,77.0,72.8,30.04,ENE,78,2.3,2.3,87,0.00,CLR,,0.00,WeatherDisplay:10.37,2013-07-17 08:33:00,
2013-07-17 04:38:00,76.9,72.7,30.04,ENE,76,3.5,3.5,87,0.00,CLR,,0.00,WeatherDisplay:10.37,2013-07-17 08:38:00,
2013-07-17 04:43:00,76.9,72.7,30.04,ENE,76,2.0,2.0,87,0.00,CLR,,0.00,WeatherDisplay:10.37,2013-07-17 08:43:00,
2013-07-17 04:48:00,76.9,72.7,30.04,East,86,2.3,2.3,87,0.00,CLR,,0.00,WeatherDisplay:10.37,2013-07-17 08:48:00,
2013-07-17 04:53:00,76.9,72.7,30.04,East,79,3.5,3.5,87,0.00,CLR,,0.00,WeatherDisplay:10.37,2013-07-17 08:53:00,
2013-07-17 04:58:00,77.0,72.5,30.04,East,91,3.5,3.5,86,0.00,CLR,,0.00,WeatherDisplay:10.37,2013-07-17 08:58:00,
2013-07-17 05:03:00,76.9,72.4,30.04,ENE,63,4.6,4.6,86,0.00,CLR,,0.00,WeatherDisplay:10.37,2013-07-17 09:03:00,
2013-07-17 05:08:00,77.0,72.1,30.04,ENE,72,3.5,3.5,85,0.00,CLR,,0.00,WeatherDisplay:10.37,2013-07-17 09:08:00,
2013-07-17 05:13:00,77.1,72.2,30.04,ENE,74,3.5,3.5,85,0.00,CLR,,0.00,WeatherDisplay:10.37,2013-07-17 09:13:00,
2013-07-17 05:18:00,77.2,72.3,30.05,East,89,3.5,3.5,85,0.00,CLR,,0.00,WeatherDisplay:10.37,2013-07-17 09:18:00,
2013-07-17 05:23:00,77.3,72.4,30.05,ENE,66,3.5,3.5,85,0.00,CLR,,0.00,WeatherDisplay:10.37,2013-07-17 09:23:00,
2013-07-17 05:28:00,77.3,72.4,30.05,ENE,71,3.5,3.5,85,0.00,CLR,,0.00,WeatherDisplay:10.37,2013-07-17 09:28:00,
2013-07-17 05:33:00,77.3,72.4,30.05,ENE,73,3.5,3.5,85,0.00,CLR,,0.00,WeatherDisplay:10.37,2013-07-17 09:33:00,
2013-07-17 05:38:00,77.3,72.4,30.05,East,92,3.5,3.5,85,0.00,CLR,,0.00,WeatherDisplay:10.37,2013-07-17 09:38:00,
2013-07-17 05:43:00,77.2,72.3,30.05,ENE,70,4.6,4.6,85,0.00,CLR,,0.00,WeatherDisplay:10.37,2013-07-17 09:43:00,
2013-07-17 05:48:00,77.3,72.4,30.05,ENE,59,4.0,4.0,85,0.00,CLR,,0.00,WeatherDisplay:10.37,2013-07-17 09:48:00,
2013-07-17 05:53:00,77.4,72.5,30.05,ENE,65,5.8,5.8,85,0.00,CLR,,0.00,WeatherDisplay:10.37,2013-07-17 09:53:00,
2013-07-17 05:58:00,77.5,72.6,30.06,ENE,62,5.8,5.8,85,0.00,CLR,,0.00,WeatherDisplay:10.37,2013-07-17 09:58:00,
2013-07-17 06:03:00,77.5,72.6,30.06,East,91,4.6,4.6,85,0.00,CLR,,0.00,WeatherDisplay:10.37,2013-07-17 10:03:00,
2013-07-17 06:08:00,77.7,72.8,30.06,ESE,109,3.5,3.5,85,0.00,CLR,,0.00,WeatherDisplay:10.37,2013-07-17 10:08:00,
2013-07-17 06:13:00,78.0,73.1,30.06,East,87,6.0,6.0,85,0.00,CLR,,0.00,WeatherDisplay:10.37,2013-07-17 10:13:00,
2013-07-17 06:18:00,78.3,73.1,30.06,East,90,6.9,6.9,84,0.00,CLR,,0.00,WeatherDisplay:10.37,2013-07-17 10:18:00,
2013-07-17 06:23:00,78.4,72.8,30.06,ESE,105,4.6,4.6,83,0.00,CLR,,0.00,WeatherDisplay:10.37,2013-07-17 10:23:00,
2013-07-17 06:28:00,78.3,72.3,30.06,East,98,4.0,4.0,82,0.00,CLR,,0.00,WeatherDisplay:10.37,2013-07-17 10:28:00,
2013-07-17 06:33:00,78.3,72.3,30.06,ESE,108,5.8,5.8,82,0.00,CLR,,0.00,WeatherDisplay:10.37,2013-07-17 10:33:00,
2013-07-17 06:38:00,78.3,72.3,30.07,East,80,4.0,4.0,82,0.00,CLR,,0.00,WeatherDisplay:10.37,2013-07-17 10:38:00,
2013-07-17 06:43:00,78.2,72.3,30.07,ENE,75,4.6,4.6,82,0.00,CLR,,0.00,WeatherDisplay:10.37,2013-07-17 10:43:00,
2013-07-17 06:48:00,78.2,72.3,30.07,East,83,4.6,4.6,82,0.00,CLR,,0.00,WeatherDisplay:10.37,2013-07-17 10:48:00,
2013-07-17 06:53:00,78.2,72.3,30.08,East,89,3.5,3.5,82,0.00,CLR,,0.00,WeatherDisplay:10.37,2013-07-17 10:53:00,
2013-07-17 06:58:00,78.3,72.3,30.08,East,92,5.0,5.0,82,0.00,CLR,,0.00,WeatherDisplay:10.37,2013-07-17 10:58:00,
2013-07-17 07:03:00,78.3,72.3,30.08,ESE,105,6.9,6.9,82,0.00,CLR,,0.00,WeatherDisplay:10.37,2013-07-17 11:03:00,
2013-07-17 07:08:00,78.4,72.4,30.08,ESE,106,4.0,4.0,82,0.00,CLR,,0.00,WeatherDisplay:10.37,2013-07-17 11:08:00,
2013-07-17 07:13:00,78.4,72.4,30.08,ESE,121,3.5,3.5,82,0.00,CLR,,0.00,WeatherDisplay:10.37,2013-07-17 11:13:00,
2013-07-17 07:18:00,78.3,72.7,30.08,East,89,5.8,5.8,83,0.00,CLR,,0.00,WeatherDisplay:10.37,2013-07-17 11:18:00,
2013-07-17 07:23:00,78.3,72.7,30.08,ESE,109,3.5,3.5,83,0.00,CLR,,0.00,WeatherDisplay:10.37,2013-07-17 11:23:00,
2013-07-17 07:28:00,78.3,72.7,30.09,SE,140,6.9,6.9,83,0.00,CLR,,0.00,WeatherDisplay:10.37,2013-07-17 11:28:00,
2013-07-17 07:33:00,78.4,72.8,30.08,ESE,105,4.6,4.6,83,0.00,CLR,,0.00,WeatherDisplay:10.37,2013-07-17 11:33:00,
2013-07-17 07:38:00,78.5,72.9,30.09,East,92,5.8,5.8,83,0.00,CLR,,0.00,WeatherDisplay:10.37,2013-07-17 11:38:00,
2013-07-17 07:43:00,78.6,73.0,30.09,SE,125,5.8,5.8,83,0.00,CLR,,0.00,WeatherDisplay:10.37,2013-07-17 11:43:00,
2013-07-17 07:48:00,78.8,72.8,30.08,ESE,107,5.8,5.8,82,0.00,CLR,,0.00,WeatherDisplay:10.37,2013-07-17 11:48:00,
2013-07-17 07:53:00,79.0,73.0,30.09,ESE,111,5.8,5.8,82,0.00,CLR,,0.00,WeatherDisplay:10.37,2013-07-17 11:53:00,
2013-07-17 07:58:00,79.3,73.3,30.09,ESE,106,9.2,9.2,82,0.00,CLR,,0.00,WeatherDisplay:10.37,2013-07-17 11:58:00,
2013-07-17 08:03:00,79.6,73.6,30.08,ESE,108,6.9,6.9,82,0.00,CLR,,0.00,WeatherDisplay:10.37,2013-07-17 12:03:00,
2013-07-17 08:08:00,79.7,73.7,30.08,ESE,106,10.0,10.0,82,0.00,CLR,,0.00,WeatherDisplay:10.37,2013-07-17 12:08:00,
2013-07-17 08:13:00,79.7,73.7,30.09,ENE,67,5.8,5.8,82,0.00,CLR,,0.00,WeatherDisplay:10.37,2013-07-17 12:13:00,
2013-07-17 08:18:00,79.8,73.8,30.08,ENE,75,9.2,9.2,82,0.00,CLR,,0.00,WeatherDisplay:10.37,2013-07-17 12:18:00,
2013-07-17 08:23:00,79.9,73.9,30.08,ENE,71,8.1,8.1,82,0.00,CLR,,0.00,WeatherDisplay:10.37,2013-07-17 12:23:00,
2013-07-17 08:28:00,80.3,74.3,30.08,SE,141,6.9,6.9,82,0.00,CLR,,0.00,WeatherDisplay:10.37,2013-07-17 12:28:00,
2013-07-17 08:33:00,80.6,74.6,30.08,East,84,6.9,6.9,82,0.00,CLR,,0.00,WeatherDisplay:10.37,2013-07-17 12:33:00,
2013-07-17 08:38:00,80.6,73.9,30.08,East,90,13.8,13.8,80,0.00,CLR,,0.00,WeatherDisplay:10.37,2013-07-17 12:38:00,
2013-07-17 08:43:00,80.4,74.0,30.08,East,82,10.4,10.4,81,0.00,CLR,,0.00,WeatherDisplay:10.37,2013-07-17 12:43:00,
2013-07-17 08:48:00,80.3,73.9,30.08,East,94,10.0,10.0,81,0.00,CLR,,0.00,WeatherDisplay:10.37,2013-07-17 12:48:00,
2013-07-17 08:53:00,80.2,74.2,30.08,ENE,72,6.9,6.9,82,0.00,CLR,,0.00,WeatherDisplay:10.37,2013-07-17 12:53:00,
2013-07-17 08:58:00,80.2,73.8,30.08,East,88,9.2,9.2,81,0.00,CLR,,0.00,WeatherDisplay:10.37,2013-07-17 12:58:00,
2013-07-17 09:03:00,80.1,74.1,30.08,East,97,10.0,10.0,82,0.00,CLR,,0.00,WeatherDisplay:10.37,2013-07-17 13:03:00,
2013-07-17 09:08:00,80.1,74.5,30.08,East,88,9.2,9.2,83,0.00,CLR,,0.00,WeatherDisplay:10.37,2013-07-17 13:08:00,
2013-07-17 09:13:00,80.1,74.5,30.08,ENE,63,10.0,10.0,83,0.00,CLR,,0.00,WeatherDisplay:10.37,2013-07-17 13:13:00,
2013-07-17 09:18:00,80.2,74.2,30.08,ENE,67,11.5,11.5,82,0.00,CLR,,0.00,WeatherDisplay:10.37,2013-07-17 13:18:00,
2013-07-17 09:23:00,80.3,74.3,30.08,ENE,59,12.7,12.7,82,0.00,CLR,,0.00,WeatherDisplay:10.37,2013-07-17 13:23:00,
2013-07-17 09:28:00,80.3,73.6,30.08,ENE,73,12.7,12.7,80,0.00,CLR,,0.00,WeatherDisplay:10.37,2013-07-17 13:28:00,
2013-07-17 09:33:00,80.5,73.8,30.08,East,88,12.7,12.7,80,0.00,CLR,,0.00,WeatherDisplay:10.37,2013-07-17 13:33:00,
2013-07-17 09:38:00,80.5,74.1,30.08,ENE,74,11.5,11.5,81,0.00,CLR,,0.00,WeatherDisplay:10.37,2013-07-17 13:38:00,
2013-07-17 09:43:00,80.6,74.2,30.09,East,86,4.6,4.6,81,0.00,CLR,,0.00,WeatherDisplay:10.37,2013-07-17 13:43:00,
2013-07-17 09:48:00,80.9,74.5,30.09,ENE,74,8.1,8.1,81,0.00,CLR,,0.00,WeatherDisplay:10.37,2013-07-17 13:48:00,
2013-07-17 09:53:00,81.0,74.2,30.09,ENE,70,6.9,6.9,80,0.00,CLR,,0.00,WeatherDisplay:10.37,2013-07-17 13:53:00,
2013-07-17 09:58:00,80.8,74.0,30.08,ENE,61,12.7,12.7,80,0.00,CLR,,0.00,WeatherDisplay:10.37,2013-07-17 13:58:00,
2013-07-17 10:03:00,80.6,73.9,30.08,ENE,59,12.7,12.7,80,0.00,CLR,,0.00,WeatherDisplay:10.37,2013-07-17 14:03:00,
2013-07-17 10:08:00,80.4,73.7,30.08,ENE,69,15.0,15.0,80,0.00,CLR,,0.00,WeatherDisplay:10.37,2013-07-17 14:08:00,
2013-07-17 10:13:00,80.4,74.0,30.08,ENE,67,9.2,9.2,81,0.00,CLR,,0.00,WeatherDisplay:10.37,2013-07-17 14:13:00,
2013-07-17 10:18:00,80.3,74.7,30.08,East,90,6.9,6.9,83,0.00,CLR,,0.00,WeatherDisplay:10.37,2013-07-17 14:18:00,
2013-07-17 10:23:00,80.2,74.6,30.08,ENE,67,5.8,6.1,83,0.00,CLR,,0.00,WeatherDisplay:10.37,2013-07-17 14:23:00,
2013-07-17 10:28:00,80.1,74.1,30.09,East,86,11.5,11.5,82,0.00,CLR,,0.00,WeatherDisplay:10.37,2013-07-17 14:28:00,
2013-07-17 10:33:00,80.1,74.1,30.09,ENE,65,10.4,10.4,82,0.00,CLR,,0.00,WeatherDisplay:10.37,2013-07-17 14:33:00,
2013-07-17 10:38:00,80.0,74.0,30.09,ESE,102,11.5,11.5,82,0.00,CLR,,0.00,WeatherDisplay:10.37,2013-07-17 14:38:00,
2013-07-17 10:43:00,80.0,74.0,30.10,East,94,10.4,10.4,82,0.00,CLR,,0.00,WeatherDisplay:10.37,2013-07-17 14:43:00,
2013-07-17 10:48:00,79.9,73.9,30.10,ESE,103,8.1,8.1,82,0.00,CLR,,0.00,WeatherDisplay:10.37,2013-07-17 14:48:00,
2013-07-17 10:53:00,79.9,73.9,30.10,East,81,6.9,6.9,82,0.00,CLR,,0.00,WeatherDisplay:10.37,2013-07-17 14:53:00,
2013-07-17 10:58:00,79.9,73.9,30.10,East,92,9.2,9.2,82,0.00,CLR,,0.00,WeatherDisplay:10.37,2013-07-17 14:58:00,
2013-07-17 11:03:00,79.9,74.3,30.10,ENE,67,7.0,7.0,83,0.00,CLR,,0.00,WeatherDisplay:10.37,2013-07-17 15:03:00,
2013-07-17 11:08:00,79.8,73.8,30.10,East,79,6.9,6.9,82,0.00,CLR,,0.00,WeatherDisplay:10.37,2013-07-17 15:08:00,
2013-07-17 11:13:00,79.8,73.4,30.10,East,91,12.7,12.7,81,0.00,CLR,,0.00,WeatherDisplay:10.37,2013-07-17 15:13:00,
2013-07-17 11:18:00,79.8,73.8,30.10,SE,125,9.2,9.2,82,0.00,CLR,,0.00,WeatherDisplay:10.37,2013-07-17 15:18:00,
2013-07-17 11:23:00,79.8,73.8,30.10,East,87,10.4,10.4,82,0.00,CLR,,0.00,WeatherDisplay:10.37,2013-07-17 15:23:00,
2013-07-17 11:28:00,79.8,73.4,30.10,East,79,10.0,10.0,81,0.00,CLR,,0.00,WeatherDisplay:10.37,2013-07-17 15:28:00,
2013-07-17 11:33:00,79.8,73.4,30.10,East,81,9.2,9.2,81,0.00,CLR,,0.00,WeatherDisplay:10.37,2013-07-17 15:33:00,
2013-07-17 11:38:00,79.8,73.8,30.10,ENE,78,10.4,10.4,82,0.00,CLR,,0.00,WeatherDisplay:10.37,2013-07-17 15:38:00,
2013-07-17 11:43:00,79.8,73.8,30.09,East,90,10.4,10.4,82,0.00,CLR,,0.00,WeatherDisplay:10.37,2013-07-17 15:43:00,
2013-07-17 11:48:00,79.7,74.1,30.10,East,92,9.0,9.0,83,0.00,CLR,,0.00,WeatherDisplay:10.37,2013-07-17 15:48:00,
2013-07-17 11:53:00,79.5,73.9,30.10,ESE,119,7.0,7.0,83,0.00,CLR,,0.00,WeatherDisplay:10.37,2013-07-17 15:53:00,
2013-07-17 11:58:00,79.2,73.9,30.10,East,96,10.4,10.4,84,0.00,CLR,,0.00,WeatherDisplay:10.37,2013-07-17 15:58:00,
2013-07-17 12:03:00,79.0,73.7,30.10,SE,137,9.2,9.2,84,0.00,CLR,,0.00,WeatherDisplay:10.37,2013-07-17 16:03:00,
2013-07-17 12:08:00,78.9,74.0,30.10,ENE,65,4.6,4.6,85,0.00,CLR,,0.00,WeatherDisplay:10.37,2013-07-17 16:08:00,
2013-07-17 12:13:00,79.0,74.5,30.10,ESE,108,6.0,6.0,86,0.00,CLR,,0.00,WeatherDisplay:10.37,2013-07-17 16:13:00,
2013-07-17 12:18:00,79.2,73.9,30.10,ESE,123,11.5,11.5,84,0.00,CLR,,0.00,WeatherDisplay:10.37,2013-07-17 16:18:00,
2013-07-17 12:23:00,79.3,73.7,30.10,ESE,113,11.5,11.5,83,0.00,CLR,,0.00,WeatherDisplay:10.37,2013-07-17 16:23:00,
2013-07-17 12:28:00,79.4,74.1,30.11,ESE,111,12.7,12.7,84,0.00,CLR,,0.00,WeatherDisplay:10.37,2013-07-17 16:28:00,
2013-07-17 12:33:00,79.3,74.0,30.11,ESE,120,12.7,12.7,84,0.00,CLR,,0.00,WeatherDisplay:10.37,2013-07-17 16:33:00,
2013-07-17 12:38:00,79.3,74.0,30.11,SE,142,9.2,9.2,84,0.00,CLR,,0.00,WeatherDisplay:10.37,2013-07-17 16:38:00,
2013-07-17 12:43:00,79.3,73.7,30.10,SE,137,11.5,11.5,83,0.00,CLR,,0.00,WeatherDisplay:10.37,2013-07-17 16:43:00,
2013-07-17 12:48:00,79.3,74.0,30.10,SE,127,6.9,6.9,84,0.00,CLR,,0.00,WeatherDisplay:10.37,2013-07-17 16:48:00,
2013-07-17 12:53:00,79.3,74.0,30.10,SSE,148,10.0,10.0,84,0.00,CLR,,0.00,WeatherDisplay:10.37,2013-07-17 16:53:00,
2013-07-17 12:58:00,79.3,73.0,30.10,ESE,121,10.4,10.4,81,0.00,CLR,,0.00,WeatherDisplay:10.37,2013-07-17 16:58:00,
2013-07-17 13:03:00,79.3,72.6,30.09,East,101,6.9,6.9,80,0.00,CLR,,0.00,WeatherDisplay:10.37,2013-07-17 17:03:00,
2013-07-17 13:08:00,79.5,71.7,30.09,East,90,9.0,9.0,77,0.00,CLR,,0.00,WeatherDisplay:10.37,2013-07-17 17:08:00,
2013-07-17 13:13:00,79.6,72.5,30.09,ENE,74,10.4,10.4,79,0.00,CLR,,0.00,WeatherDisplay:10.37,2013-07-17 17:13:00,
2013-07-17 13:18:00,79.7,72.6,30.09,SE,144,12.7,12.7,79,0.00,CLR,,0.00,WeatherDisplay:10.37,2013-07-17 17:18:00,
2013-07-17 13:23:00,79.6,72.5,30.09,ESE,111,10.0,10.0,79,0.00,CLR,,0.00,WeatherDisplay:10.37,2013-07-17 17:23:00,
2013-07-17 13:28:00,79.6,72.5,30.09,SE,136,9.2,9.2,79,0.00,CLR,,0.00,WeatherDisplay:10.37,2013-07-17 17:28:00,
2013-07-17 13:33:00,80.0,72.5,30.09,SSE,148,11.5,11.5,78,0.00,CLR,,0.00,WeatherDisplay:10.37,2013-07-17 17:33:00,
2013-07-17 13:38:00,80.3,72.8,30.09,SE,130,7.0,7.0,78,0.00,CLR,,0.00,WeatherDisplay:10.37,2013-07-17 17:38:00,
2013-07-17 13:43:00,80.0,73.6,30.09,SSW,213,11.5,11.5,81,0.00,CLR,,0.00,WeatherDisplay:10.37,2013-07-17 17:43:00,
2013-07-17 13:48:00,79.4,73.8,30.09,South,180,5.8,5.8,83,0.00,CLR,,0.00,WeatherDisplay:10.37,2013-07-17 17:48:00,
2013-07-17 13:53:00,79.3,74.0,30.09,South,169,3.5,3.5,84,0.00,CLR,,0.00,WeatherDisplay:10.37,2013-07-17 17:53:00,
2013-07-17 13:58:00,79.4,74.1,30.09,SW,220,6.9,6.9,84,0.00,CLR,,0.00,WeatherDisplay:10.37,2013-07-17 17:58:00,
2013-07-17 14:03:00,79.2,73.9,30.09,South,186,5.8,5.8,84,0.00,CLR,,0.00,WeatherDisplay:10.37,2013-07-17 18:03:00,
2013-07-17 14:08:00,79.1,73.8,30.09,SSW,200,6.9,6.9,84,0.00,CLR,,0.00,WeatherDisplay:10.37,2013-07-17 18:08:00,
2013-07-17 14:13:00,79.1,73.8,30.09,SSW,194,5.0,5.0,84,0.00,CLR,,0.00,WeatherDisplay:10.37,2013-07-17 18:13:00,
2013-07-17 14:18:00,79.2,73.9,30.09,SSE,165,11.5,11.5,84,0.00,CLR,,0.00,WeatherDisplay:10.37,2013-07-17 18:18:00,
2013-07-17 14:23:00,79.2,74.3,30.10,SE,133,15.0,15.0,85,0.00,CLR,,0.00,WeatherDisplay:10.37,2013-07-17 18:23:00,
2013-07-17 14:28:00,76.0,70.1,30.11,East,88,15.0,15.0,82,0.00,CLR,,0.00,WeatherDisplay:10.37,2013-07-17 18:28:00,
2013-07-17 14:30:00,75.0,69.5,30.11,ENE,72,13.8,13.8,83,0.01,RA,,0.01,WeatherDisplay:10.37,2013-07-17 18:30:00,
2013-07-17 14:35:00,72.8,69.4,30.10,East,96,4.6,4.6,89,0.05,RA,,0.05,WeatherDisplay:10.37,2013-07-17 18:35:00,
2013-07-17 14:40:00,72.1,69.3,30.10,East,93,11.5,11.5,91,0.06,RA,,0.06,WeatherDisplay:10.37,2013-07-17 18:40:00,
2013-07-17 14:45:00,71.9,69.4,30.10,East,82,5.0,5.0,92,0.08,RA,,0.08,WeatherDisplay:10.37,2013-07-17 18:45:00,
2013-07-17 14:50:00,71.9,69.8,30.09,East,86,5.8,5.8,93,0.09,RA,,0.09,WeatherDisplay:10.37,2013-07-17 18:50:00,
2013-07-17 14:55:00,72.0,69.9,30.09,ESE,110,3.5,3.5,93,0.09,RA,,0.09,WeatherDisplay:10.37,2013-07-17 18:55:00,
2013-07-17 15:00:00,72.1,70.0,30.08,SE,132,5.8,5.8,93,0.09,,,0.09,WeatherDisplay:10.37,2013-07-17 19:00:00,
2013-07-17 15:05:00,72.4,70.3,30.08,SE,138,5.8,5.8,93,0.09,CLR,,0.09,WeatherDisplay:10.37,2013-07-17 19:05:00,
2013-07-17 15:10:00,72.6,70.8,30.08,SE,144,4.6,4.6,94,0.09,CLR,,0.09,WeatherDisplay:10.37,2013-07-17 19:10:00,
2013-07-17 15:15:00,72.9,71.4,30.08,ESE,123,3.5,3.5,95,0.09,CLR,,0.09,WeatherDisplay:10.37,2013-07-17 19:15:00,
2013-07-17 15:20:00,73.3,71.8,30.08,ESE,121,3.5,3.5,95,0.09,CLR,,0.09,WeatherDisplay:10.37,2013-07-17 19:20:00,
2013-07-17 15:25:00,73.7,72.2,30.08,ESE,120,2.3,2.3,95,0.10,RA,,0.10,WeatherDisplay:10.37,2013-07-17 19:25:00,
2013-07-17 15:30:00,74.2,73.0,30.08,SSE,152,3.5,3.5,96,0.09,RA,,0.10,WeatherDisplay:10.37,2013-07-17 19:30:00,
2013-07-17 15:35:00,74.6,73.4,30.07,ESE,120,3.5,3.5,96,0.06,RA,,0.11,WeatherDisplay:10.37,2013-07-17 19:35:00,
2013-07-17 15:40:00,74.9,73.7,30.07,SSE,164,4.6,4.6,96,0.05,RA,,0.11,WeatherDisplay:10.37,2013-07-17 19:40:00,
2013-07-17 15:45:00,75.2,73.7,30.07,SE,141,3.5,3.5,95,0.04,RA,,0.12,WeatherDisplay:10.37,2013-07-17 19:45:00,
2013-07-17 15:50:00,75.4,73.9,30.07,ESE,122,10.4,10.4,95,0.03,RA,,0.12,WeatherDisplay:10.37,2013-07-17 19:50:00,
2013-07-17 15:55:00,75.7,74.2,30.07,SSE,147,4.6,4.6,95,0.03,,,0.12,WeatherDisplay:10.37,2013-07-17 19:55:00,
2013-07-17 16:00:00,76.0,74.5,30.07,SSE,149,6.9,6.9,95,0.03,CLR,,0.12,WeatherDisplay:10.37,2013-07-17 20:00:00,
2013-07-17 16:05:00,76.1,74.2,30.07,SSE,163,9.2,9.2,94,0.03,CLR,,0.12,WeatherDisplay:10.37,2013-07-17 20:05:00,
2013-07-17 16:10:00,76.1,73.9,30.07,SSE,166,5.8,5.8,93,0.03,CLR,,0.12,WeatherDisplay:10.37,2013-07-17 20:10:00,
2013-07-17 16:15:00,76.2,73.7,30.06,SE,136,5.8,5.8,92,0.03,CLR,,0.12,WeatherDisplay:10.37,2013-07-17 20:15:00,
2013-07-17 16:20:00,76.2,73.4,30.06,SE,139,7.0,7.0,91,0.03,CLR,,0.12,WeatherDisplay:10.37,2013-07-17 20:20:00,
2013-07-17 16:25:00,76.1,73.0,30.06,SE,140,3.5,3.5,90,0.02,CLR,,0.12,WeatherDisplay:10.37,2013-07-17 20:25:00,
2013-07-17 16:30:00,76.1,73.3,30.06,SSE,147,3.5,3.5,91,0.02,CLR,,0.12,WeatherDisplay:10.37,2013-07-17 20:30:00,
2013-07-17 16:35:00,76.3,73.5,30.05,ESE,116,5.8,5.8,91,0.01,CLR,,0.12,WeatherDisplay:10.37,2013-07-17 20:35:00,
2013-07-17 16:40:00,76.4,73.6,30.05,ESE,123,4.6,4.6,91,0.01,CLR,,0.12,WeatherDisplay:10.37,2013-07-17 20:40:00,
2013-07-17 16:45:00,76.7,74.2,30.05,SE,142,3.5,3.5,92,0.00,CLR,,0.12,WeatherDisplay:10.37,2013-07-17 20:45:00,
2013-07-17 16:50:00,76.8,73.6,30.05,SE,144,5.8,5.8,90,0.00,CLR,,0.12,WeatherDisplay:10.37,2013-07-17 20:50:00,
2013-07-17 16:55:00,77.0,73.5,30.04,ESE,113,8.1,8.1,89,0.00,CLR,,0.12,WeatherDisplay:10.37,2013-07-17 20:55:00,
2013-07-17 17:00:00,77.5,74.0,30.04,ESE,119,6.9,6.9,89,0.00,CLR,,0.12,WeatherDisplay:10.37,2013-07-17 21:00:00,
2013-07-17 17:05:00,78.1,73.2,30.04,SE,139,12.7,12.7,85,0.00,CLR,,0.12,WeatherDisplay:10.37,2013-07-17 21:05:00,
2013-07-17 17:10:00,78.3,74.1,30.04,ESE,122,13.8,13.8,87,0.00,CLR,,0.12,WeatherDisplay:10.37,2013-07-17 21:10:00,
2013-07-17 17:15:00,78.0,74.5,30.03,SE,136,10.4,10.4,89,0.00,CLR,,0.12,WeatherDisplay:10.37,2013-07-17 21:15:00,
2013-07-17 17:20:00,78.1,74.3,30.03,East,97,11.5,11.5,88,0.00,CLR,,0.12,WeatherDisplay:10.37,2013-07-17 21:20:00,
2013-07-17 17:25:00,78.2,73.7,30.03,ESE,116,10.4,10.4,86,0.00,CLR,,0.12,WeatherDisplay:10.37,2013-07-17 21:25:00,
2013-07-17 17:30:00,78.3,72.0,30.03,ESE,111,11.5,11.5,81,0.00,CLR,,0.12,WeatherDisplay:10.37,2013-07-17 21:30:00,
2013-07-17 17:35:00,78.3,70.9,30.03,ESE,117,11.5,11.5,78,0.00,CLR,,0.12,WeatherDisplay:10.37,2013-07-17 21:35:00,
2013-07-17 17:40:00,78.6,71.2,30.03,East,92,9.2,9.2,78,0.00,CLR,,0.12,WeatherDisplay:10.37,2013-07-17 21:40:00,
2013-07-17 17:45:00,78.8,71.0,30.03,ENE,75,12.7,12.7,77,0.00,CLR,,0.12,WeatherDisplay:10.37,2013-07-17 21:45:00,
2013-07-17 17:50:00,78.7,70.9,30.02,ESE,109,10.4,10.4,77,0.00,CLR,,0.12,WeatherDisplay:10.37,2013-07-17 21:50:00,
2013-07-17 17:55:00,78.7,71.3,30.02,ENE,77,10.4,10.4,78,0.00,CLR,,0.12,WeatherDisplay:10.37,2013-07-17 21:55:00,
2013-07-17 18:00:00,78.6,70.4,30.02,ESE,123,11.5,11.5,76,0.00,CLR,,0.12,WeatherDisplay:10.37,2013-07-17 22:00:00,
2013-07-17 18:05:00,78.5,70.7,30.02,ENE,60,10.4,10.4,77,0.00,CLR,,0.12,WeatherDisplay:10.37,2013-07-17 22:05:00,
2013-07-17 18:10:00,78.6,70.8,30.02,NE,46,13.8,13.8,77,0.00,CLR,,0.12,WeatherDisplay:10.37,2013-07-17 22:10:00,
2013-07-17 18:15:00,78.6,71.2,30.02,NE,49,9.2,9.2,78,0.00,CLR,,0.12,WeatherDisplay:10.37,2013-07-17 22:15:00,
2013-07-17 18:20:00,78.7,71.3,30.03,East,88,9.2,9.2,78,0.00,CLR,,0.12,WeatherDisplay:10.37,2013-07-17 22:20:00,
2013-07-17 18:25:00,79.0,71.9,30.03,East,81,10.4,10.4,79,0.00,CLR,,0.12,WeatherDisplay:10.37,2013-07-17 22:25:00,
2013-07-17 18:30:00,78.9,71.8,30.03,East,82,9.2,9.2,79,0.00,CLR,,0.12,WeatherDisplay:10.37,2013-07-17 22:30:00,
2013-07-17 18:35:00,78.8,72.1,30.03,East,94,10.4,10.4,80,0.00,CLR,,0.12,WeatherDisplay:10.37,2013-07-17 22:35:00,
2013-07-17 18:40:00,78.7,72.0,30.04,East,80,11.5,11.5,80,0.00,CLR,,0.12,WeatherDisplay:10.37,2013-07-17 22:40:00,
2013-07-17 18:45:00,78.7,72.7,30.03,East,90,11.5,11.5,82,0.00,CLR,,0.12,WeatherDisplay:10.37,2013-07-17 22:45:00,
2013-07-17 18:50:00,78.6,72.6,30.04,ESE,117,11.5,11.5,82,0.00,CLR,,0.12,WeatherDisplay:10.37,2013-07-17 22:50:00,
2013-07-17 18:55:00,78.5,72.5,30.04,East,88,11.5,11.5,82,0.00,CLR,,0.12,WeatherDisplay:10.37,2013-07-17 22:55:00,
2013-07-17 19:00:00,78.5,72.9,30.04,ESE,105,5.8,5.8,83,0.00,CLR,,0.12,WeatherDisplay:10.37,2013-07-17 23:00:00,
2013-07-17 19:05:00,78.5,72.9,30.04,ESE,103,9.2,9.2,83,0.00,CLR,,0.12,WeatherDisplay:10.37,2013-07-17 23:05:00,
2013-07-17 19:10:00,78.5,72.9,30.04,SE,130,9.2,9.2,83,0.00,CLR,,0.12,WeatherDisplay:10.37,2013-07-17 23:10:00,
2013-07-17 19:15:00,78.5,72.9,30.04,East,94,5.8,5.8,83,0.00,CLR,,0.12,WeatherDisplay:10.37,2013-07-17 23:15:00,
2013-07-17 19:20:00,78.5,72.9,30.04,ESE,123,3.5,3.5,83,0.00,CLR,,0.12,WeatherDisplay:10.37,2013-07-17 23:20:00,
2013-07-17 19:25:00,78.4,72.8,30.04,ESE,111,5.8,5.8,83,0.00,CLR,,0.12,WeatherDisplay:10.37,2013-07-17 23:25:00,
2013-07-17 19:30:00,78.4,72.8,30.04,East,94,7.0,7.0,83,0.00,CLR,,0.12,WeatherDisplay:10.37,2013-07-17 23:30:00,
2013-07-17 19:35:00,78.4,72.8,30.05,ESE,108,8.0,8.0,83,0.00,CLR,,0.12,WeatherDisplay:10.37,2013-07-17 23:35:00,
2013-07-17 19:40:00,78.5,73.3,30.05,East,86,5.8,5.8,84,0.00,CLR,,0.12,WeatherDisplay:10.37,2013-07-17 23:40:00,
2013-07-17 19:45:00,78.4,73.2,30.05,East,96,4.6,4.6,84,0.00,CLR,,0.12,WeatherDisplay:10.37,2013-07-17 23:45:00,
2013-07-17 19:50:00,78.4,73.2,30.05,ENE,77,6.9,6.9,84,0.00,CLR,,0.12,WeatherDisplay:10.37,2013-07-17 23:50:00,
2013-07-17 19:55:00,78.4,73.5,30.05,ENE,66,3.5,3.5,85,0.00,CLR,,0.12,WeatherDisplay:10.37,2013-07-17 23:55:00,
2013-07-17 20:00:00,78.3,73.4,30.05,SE,125,6.9,6.9,85,0.00,CLR,,0.12,WeatherDisplay:10.37,2013-07-18 00:00:00,
2013-07-17 20:05:00,78.3,73.4,30.05,ENE,76,5.8,5.8,85,0.00,CLR,,0.12,WeatherDisplay:10.37,2013-07-18 00:05:00,
2013-07-17 20:10:00,78.4,73.5,30.05,ENE,78,4.0,4.0,85,0.00,CLR,,0.12,WeatherDisplay:10.37,2013-07-18 00:10:00,
2013-07-17 20:15:00,78.4,73.5,30.05,East,80,3.5,3.5,85,0.00,CLR,,0.12,WeatherDisplay:10.37,2013-07-18 00:15:00,
2013-07-17 20:20:00,78.4,73.5,30.05,ESE,117,4.6,4.6,85,0.00,CLR,,0.12,WeatherDisplay:10.37,2013-07-18 00:20:00,
2013-07-17 20:25:00,78.4,72.8,30.05,ESE,123,4.6,4.6,83,0.00,CLR,,0.12,WeatherDisplay:10.37,2013-07-18 00:25:00,
2013-07-17 20:30:00,78.3,72.7,30.05,SE,126,3.5,3.5,83,0.00,CLR,,0.12,WeatherDisplay:10.37,2013-07-18 00:30:00,
2013-07-17 20:35:00,78.3,72.0,30.05,ESE,111,5.8,5.8,81,0.00,CLR,,0.12,WeatherDisplay:10.37,2013-07-18 00:35:00,
2013-07-17 20:40:00,78.2,71.9,30.05,SE,136,5.0,5.0,81,0.00,CLR,,0.12,WeatherDisplay:10.37,2013-07-18 00:40:00,
2013-07-17 20:45:00,78.0,71.7,30.05,SE,124,3.5,3.5,81,0.00,CLR,,0.12,WeatherDisplay:10.37,2013-07-18 00:45:00,
2013-07-17 20:50:00,77.8,71.9,30.05,SE,126,3.5,3.5,82,0.00,CLR,,0.12,WeatherDisplay:10.37,2013-07-18 00:50:00,
2013-07-17 20:55:00,77.7,71.8,30.06,East,96,3.5,3.5,82,0.00,CLR,,0.12,WeatherDisplay:10.37,2013-07-18 00:55:00,
2013-07-17 21:00:00,77.6,72.0,30.06,SE,138,5.0,5.0,83,0.00,CLR,,0.12,WeatherDisplay:10.37,2013-07-18 01:00:00,
2013-07-17 21:05:00,77.6,71.7,30.06,SE,126,4.6,4.6,82,0.00,CLR,,0.12,WeatherDisplay:10.37,2013-07-18 01:05:00,
2013-07-17 21:10:00,77.4,71.5,30.06,SE,125,4.6,4.6,82,0.00,CLR,,0.12,WeatherDisplay:10.37,2013-07-18 01:10:00,
2013-07-17 21:15:00,77.2,71.6,30.06,SE,129,3.5,3.5,83,0.00,CLR,,0.12,WeatherDisplay:10.37,2013-07-18 01:15:00,
2013-07-17 21:20:00,77.1,71.5,30.06,SE,138,3.5,3.5,83,0.00,CLR,,0.12,WeatherDisplay:10.37,2013-07-18 01:20:00,
2013-07-17 21:25:00,77.0,71.4,30.06,SE,140,4.0,4.0,83,0.00,CLR,,0.12,WeatherDisplay:10.37,2013-07-18 01:25:00,
2013-07-17 21:30:00,77.0,71.4,30.06,SE,132,3.5,3.5,83,0.00,CLR,,0.12,WeatherDisplay:10.37,2013-07-18 01:30:00,
2013-07-17 21:35:00,77.0,71.4,30.06,SE,130,3.5,3.5,83,0.00,CLR,,0.12,WeatherDisplay:10.37,2013-07-18 01:35:00,
2013-07-17 21:40:00,77.0,71.8,30.07,SE,130,2.3,2.3,84,0.00,CLR,,0.12,WeatherDisplay:10.37,2013-07-18 01:40:00,
2013-07-17 21:45:00,77.1,71.9,30.06,SE,130,2.3,2.3,84,0.00,CLR,,0.12,WeatherDisplay:10.37,2013-07-18 01:45:00,
2013-07-17 21:50:00,77.2,72.0,30.06,SE,132,5.8,5.8,84,0.00,CLR,,0.12,WeatherDisplay:10.37,2013-07-18 01:50:00,
2013-07-17 21:55:00,77.3,72.1,30.06,East,90,3.5,3.5,84,0.00,CLR,,0.12,WeatherDisplay:10.37,2013-07-18 01:55:00,
2013-07-17 22:00:00,77.2,72.0,30.06,East,84,4.0,4.0,84,0.00,CLR,,0.12,WeatherDisplay:10.37,2013-07-18 02:00:00,
2013-07-17 22:05:00,77.2,72.0,30.06,ENE,64,5.8,5.8,84,0.00,CLR,,0.12,WeatherDisplay:10.37,2013-07-18 02:05:00,
2013-07-17 22:10:00,77.0,70.7,30.06,ENE,67,11.5,11.5,81,0.00,CLR,,0.12,WeatherDisplay:10.37,2013-07-18 02:10:00,
2013-07-17 22:15:00,76.7,71.1,30.06,ENE,61,4.6,4.6,83,0.00,CLR,,0.12,WeatherDisplay:10.37,2013-07-18 02:15:00,
2013-07-17 22:20:00,76.3,71.1,30.07,ENE,70,6.9,6.9,84,0.00,CLR,,0.12,WeatherDisplay:10.37,2013-07-18 02:20:00,
2013-07-17 22:25:00,76.0,71.2,30.07,ENE,65,3.5,3.5,85,0.00,CLR,,0.12,WeatherDisplay:10.37,2013-07-18 02:25:00,
2013-07-17 22:30:00,75.8,71.3,30.07,ENE,65,3.5,3.5,86,0.00,CLR,,0.12,WeatherDisplay:10.37,2013-07-18 02:30:00,
2013-07-17 22:35:00,75.7,71.9,30.07,East,79,3.5,3.5,88,0.00,CLR,,0.12,WeatherDisplay:10.37,2013-07-18 02:35:00,
2013-07-17 22:40:00,75.6,71.8,30.07,ESE,109,2.3,2.3,88,0.00,CLR,,0.12,WeatherDisplay:10.37,2013-07-18 02:40:00,
2013-07-17 22:45:00,75.5,72.0,30.07,East,85,1.2,1.2,89,0.00,CLR,,0.12,WeatherDisplay:10.37,2013-07-18 02:45:00,
2013-07-17 22:50:00,75.4,71.9,30.07,ENE,78,3.5,3.5,89,0.00,CLR,,0.12,WeatherDisplay:10.37,2013-07-18 02:50:00,
2013-07-17 22:55:00,75.4,71.9,30.07,ENE,78,2.3,2.3,89,0.00,CLR,,0.12,WeatherDisplay:10.37,2013-07-18 02:55:00,
2013-07-17 23:00:00,75.4,71.9,30.06,ENE,74,3.5,3.5,89,0.00,CLR,,0.12,WeatherDisplay:10.37,2013-07-18 03:00:00,
2013-07-17 23:05:00,75.5,72.4,30.06,ENE,74,1.2,1.2,90,0.00,CLR,,0.12,WeatherDisplay:10.37,2013-07-18 03:05:00,
2013-07-17 23:10:00,75.5,72.4,30.06,ENE,72,1.2,1.2,90,0.00,CLR,,0.12,WeatherDisplay:10.37,2013-07-18 03:10:00,
2013-07-17 23:15:00,75.5,72.0,30.06,ENE,72,1.2,0.0,89,0.00,CLR,,0.12,WeatherDisplay:10.37,2013-07-18 03:15:00,
2013-07-17 23:20:00,75.6,72.1,30.06,ENE,72,1.2,1.2,89,0.00,CLR,,0.12,WeatherDisplay:10.37,2013-07-18 03:20:00,
2013-07-17 23:25:00,75.6,72.1,30.06,ENE,72,1.2,1.2,89,0.00,CLR,,0.12,WeatherDisplay:10.37,2013-07-18 03:25:00,
2013-07-17 23:30:00,75.7,71.6,30.06,ESE,119,3.5,3.5,87,0.00,CLR,,0.12,WeatherDisplay:10.37,2013-07-18 03:30:00,
2013-07-17 23:35:00,76.1,72.3,30.06,ESE,119,10.4,10.4,88,0.00,CLR,,0.12,WeatherDisplay:10.37,2013-07-18 03:35:00,
2013-07-17 23:40:00,76.4,72.6,30.06,SSE,156,10.4,10.4,88,0.00,CLR,,0.12,WeatherDisplay:10.37,2013-07-18 03:40:00,
2013-07-17 23:45:00,76.4,72.9,30.06,SE,136,9.2,9.2,89,0.00,CLR,,0.12,WeatherDisplay:10.37,2013-07-18 03:45:00,
2013-07-17 23:50:00,76.4,72.9,30.06,ESE,123,5.8,5.8,89,0.00,CLR,,0.12,WeatherDisplay:10.37,2013-07-18 03:50:00,
2013-07-17 23:55:00,76.2,72.7,30.06,SSE,159,6.9,6.9,89,0.00,CLR,,0.12,WeatherDisplay:10.37,2013-07-18 03:55:00,